Monterville, West Virginia
Current Conditions -  °F | °C
As of 2:51 PM on Sunday 21 Dec 2014 (Local Time) from KEKN Reporting Station
Clear Clear  
Wind Chill: 43°   Ceiling: Unl
Heat Index: 43°   Visibility: 10mi
Dew Point: 28°   Wind: 3mph
Humidity: 56%   Direction: 300°WNW
Pressure: 30.15"   Gusts: NA
Location:  38.56°N, 80.11°W
Report Text: KEKN 211951Z AUTO 30003KT 10SM CLR 06/M02 A3015 RMK AO2 SLP230 T00611022 TSNO $
Loading
Personal Weather Stations






























Interactive Weather Map New forecast layout! Learn more

10-Day Weather Forecast

Advertisements
Track Severe Weather on mobile